sensor_id;sensor_type;location;lat;lon;timestamp;P1;durP1;ratioP1;P2;durP2;ratioP2
9892;SDS011;4985;49.092;8.542;2022-11-20T00:01:12;6.47;;;4.00;;
9892;SDS011;4985;49.092;8.542;2022-11-20T00:03:39;5.63;;;3.93;;
9892;SDS011;4985;49.092;8.542;2022-11-20T00:06:09;6.30;;;3.83;;
9892;SDS011;4985;49.092;8.542;2022-11-20T00:08:37;4.60;;;3.70;;
9892;SDS011;4985;49.092;8.542;2022-11-20T00:11:04;4.63;;;3.53;;
9892;SDS011;4985;49.092;8.542;2022-11-20T00:13:31;5.47;;;3.93;;
9892;SDS011;4985;49.092;8.542;2022-11-20T00:15:58;3.97;;;3.13;;
9892;SDS011;4985;49.092;8.542;2022-11-20T00:18:25;5.70;;;3.90;;
9892;SDS011;4985;49.092;8.542;2022-11-20T00:20:52;4.93;;;3.67;;
9892;SDS011;4985;49.092;8.542;2022-11-20T00:23:20;5.53;;;3.87;;
9892;SDS011;4985;49.092;8.542;2022-11-20T00:25:47;6.67;;;3.43;;
9892;SDS011;4985;49.092;8.542;2022-11-20T00:28:13;5.13;;;3.90;;
9892;SDS011;4985;49.092;8.542;2022-11-20T00:30:40;6.10;;;4.37;;
9892;SDS011;4985;49.092;8.542;2022-11-20T00:33:06;5.73;;;4.23;;
9892;SDS011;4985;49.092;8.542;2022-11-20T00:35:33;5.73;;;4.23;;
9892;SDS011;4985;49.092;8.542;2022-11-20T00:37:59;4.53;;;3.73;;
9892;SDS011;4985;49.092;8.542;2022-11-20T00:40:27;4.70;;;3.77;;
9892;SDS011;4985;49.092;8.542;2022-11-20T00:42:57;5.53;;;3.87;;
9892;SDS011;4985;49.092;8.542;2022-11-20T00:45:23;5.83;;;3.87;;
9892;SDS011;4985;49.092;8.542;2022-11-20T00:47:50;4.50;;;3.67;;
9892;SDS011;4985;49.092;8.542;2022-11-20T00:50:16;4.93;;;4.10;;
9892;SDS011;4985;49.092;8.542;2022-11-20T00:52:43;5.47;;;3.93;;
9892;SDS011;4985;49.092;8.542;2022-11-20T00:55:09;4.67;;;3.80;;
9892;SDS011;4985;49.092;8.542;2022-11-20T00:57:37;5.53;;;4.13;;
9892;SDS011;4985;49.092;8.542;2022-11-20T01:00:04;4.67;;;3.50;;
9892;SDS011;4985;49.092;8.542;2022-11-20T01:02:33;6.17;;;4.07;;
9892;SDS011;4985;49.092;8.542;2022-11-20T01:05:00;5.40;;;4.33;;
9892;SDS011;4985;49.092;8.542;2022-11-20T01:07:27;5.03;;;3.93;;
9892;SDS011;4985;49.092;8.542;2022-11-20T01:09:53;4.50;;;3.70;;
9892;SDS011;4985;49.092;8.542;2022-11-20T01:12:20;5.43;;;4.03;;
9892;SDS011;4985;49.092;8.542;2022-11-20T01:14:48;8.07;;;4.50;;
9892;SDS011;4985;49.092;8.542;2022-11-20T01:17:14;5.10;;;4.23;;
9892;SDS011;4985;49.092;8.542;2022-11-20T01:19:41;6.00;;;4.00;;
9892;SDS011;4985;49.092;8.542;2022-11-20T01:22:07;5.33;;;3.53;;
9892;SDS011;4985;49.092;8.542;2022-11-20T01:24:34;5.43;;;3.53;;
9892;SDS011;4985;49.092;8.542;2022-11-20T01:27:00;5.53;;;4.23;;
9892;SDS011;4985;49.092;8.542;2022-11-20T01:29:27;4.50;;;3.93;;
9892;SDS011;4985;49.092;8.542;2022-11-20T01:31:55;5.33;;;3.90;;
9892;SDS011;4985;49.092;8.542;2022-11-20T01:34:22;4.33;;;3.87;;
9892;SDS011;4985;49.092;8.542;2022-11-20T01:36:50;4.93;;;3.87;;
9892;SDS011;4985;49.092;8.542;2022-11-20T01:39:18;5.00;;;4.00;;
9892;SDS011;4985;49.092;8.542;2022-11-20T01:41:46;5.57;;;4.13;;
9892;SDS011;4985;49.092;8.542;2022-11-20T01:44:51;6.17;;;4.37;;
9892;SDS011;4985;49.092;8.542;2022-11-20T01:47:25;5.47;;;3.50;;
9892;SDS011;4985;49.092;8.542;2022-11-20T01:49:56;6.13;;;4.20;;
9892;SDS011;4985;49.092;8.542;2022-11-20T01:52:27;6.47;;;3.83;;
9892;SDS011;4985;49.092;8.542;2022-11-20T01:55:00;5.33;;;4.20;;
9892;SDS011;4985;49.092;8.542;2022-11-20T01:57:31;4.50;;;4.00;;
9892;SDS011;4985;49.092;8.542;2022-11-20T02:00:02;4.80;;;3.83;;
9892;SDS011;4985;49.092;8.542;2022-11-20T02:02:34;4.97;;;3.97;;
9892;SDS011;4985;49.092;8.542;2022-11-20T02:05:04;4.40;;;3.63;;
9892;SDS011;4985;49.092;8.542;2022-11-20T02:07:40;4.47;;;3.57;;
9892;SDS011;4985;49.092;8.542;2022-11-20T02:10:07;3.77;;;3.20;;
9892;SDS011;4985;49.092;8.542;2022-11-20T02:12:34;4.27;;;3.60;;
9892;SDS011;4985;49.092;8.542;2022-11-20T02:15:18;5.37;;;3.50;;
9892;SDS011;4985;49.092;8.542;2022-11-20T02:17:46;3.90;;;3.30;;
9892;SDS011;4985;49.092;8.542;2022-11-20T02:20:13;5.53;;;3.20;;
9892;SDS011;4985;49.092;8.542;2022-11-20T02:22:42;4.93;;;3.70;;
9892;SDS011;4985;49.092;8.542;2022-11-20T02:25:18;4.40;;;3.67;;
9892;SDS011;4985;49.092;8.542;2022-11-20T02:27:46;3.97;;;3.33;;
9892;SDS011;4985;49.092;8.542;2022-11-20T02:30:12;5.60;;;3.77;;
9892;SDS011;4985;49.092;8.542;2022-11-20T02:32:39;3.90;;;3.33;;
9892;SDS011;4985;49.092;8.542;2022-11-20T02:35:06;4.63;;;3.30;;
9892;SDS011;4985;49.092;8.542;2022-11-20T02:37:35;4.57;;;3.57;;
9892;SDS011;4985;49.092;8.542;2022-11-20T02:40:06;4.83;;;3.73;;
9892;SDS011;4985;49.092;8.542;2022-11-20T02:42:35;4.40;;;3.40;;
9892;SDS011;4985;49.092;8.542;2022-11-20T02:45:02;3.60;;;3.20;;
9892;SDS011;4985;49.092;8.542;2022-11-20T02:47:29;5.07;;;3.07;;
9892;SDS011;4985;49.092;8.542;2022-11-20T02:49:55;5.43;;;3.10;;
9892;SDS011;4985;49.092;8.542;2022-11-20T02:52:22;4.20;;;3.10;;
9892;SDS011;4985;49.092;8.542;2022-11-20T02:54:49;3.93;;;2.90;;
9892;SDS011;4985;49.092;8.542;2022-11-20T02:57:15;3.80;;;3.10;;
9892;SDS011;4985;49.092;8.542;2022-11-20T02:59:43;4.80;;;2.90;;
9892;SDS011;4985;49.092;8.542;2022-11-20T03:02:10;3.23;;;2.23;;
9892;SDS011;4985;49.092;8.542;2022-11-20T03:04:38;3.13;;;2.47;;
9892;SDS011;4985;49.092;8.542;2022-11-20T03:07:04;3.43;;;2.93;;
9892;SDS011;4985;49.092;8.542;2022-11-20T03:09:31;2.87;;;2.57;;
9892;SDS011;4985;49.092;8.542;2022-11-20T03:11:58;5.50;;;2.90;;
9892;SDS011;4985;49.092;8.542;2022-11-20T03:14:24;3.40;;;2.70;;
9892;SDS011;4985;49.092;8.542;2022-11-20T03:16:52;3.83;;;2.50;;
9892;SDS011;4985;49.092;8.542;2022-11-20T03:19:19;3.93;;;2.60;;
9892;SDS011;4985;49.092;8.542;2022-11-20T03:21:45;5.20;;;2.80;;
9892;SDS011;4985;49.092;8.542;2022-11-20T03:24:13;5.47;;;3.00;;
9892;SDS011;4985;49.092;8.542;2022-11-20T03:26:40;3.30;;;2.80;;
9892;SDS011;4985;49.092;8.542;2022-11-20T03:29:06;3.50;;;2.60;;
9892;SDS011;4985;49.092;8.542;2022-11-20T03:31:34;4.10;;;2.97;;
9892;SDS011;4985;49.092;8.542;2022-11-20T03:34:04;3.10;;;2.37;;
9892;SDS011;4985;49.092;8.542;2022-11-20T03:36:30;4.17;;;2.50;;
9892;SDS011;4985;49.092;8.542;2022-11-20T03:38:57;3.83;;;2.50;;
9892;SDS011;4985;49.092;8.542;2022-11-20T03:41:25;3.40;;;2.60;;
9892;SDS011;4985;49.092;8.542;2022-11-20T03:43:54;4.20;;;2.60;;
9892;SDS011;4985;49.092;8.542;2022-11-20T03:46:21;2.87;;;2.17;;
9892;SDS011;4985;49.092;8.542;2022-11-20T03:48:49;3.53;;;2.33;;
9892;SDS011;4985;49.092;8.542;2022-11-20T03:51:18;6.37;;;3.17;;
9892;SDS011;4985;49.092;8.542;2022-11-20T03:53:46;2.50;;;2.00;;
9892;SDS011;4985;49.092;8.542;2022-11-20T03:56:14;2.50;;;2.10;;
9892;SDS011;4985;49.092;8.542;2022-11-20T03:58:43;4.63;;;2.97;;
9892;SDS011;4985;49.092;8.542;2022-11-20T04:01:10;2.93;;;2.00;;
9892;SDS011;4985;49.092;8.542;2022-11-20T04:03:38;3.37;;;2.57;;
9892;SDS011;4985;49.092;8.542;2022-11-20T04:06:07;3.83;;;2.20;;
9892;SDS011;4985;49.092;8.542;2022-11-20T04:08:36;2.27;;;1.80;;
9892;SDS011;4985;49.092;8.542;2022-11-20T04:11:10;2.70;;;2.20;;
9892;SDS011;4985;49.092;8.542;2022-11-20T04:13:37;2.40;;;2.07;;
9892;SDS011;4985;49.092;8.542;2022-11-20T04:16:04;3.70;;;2.30;;
9892;SDS011;4985;49.092;8.542;2022-11-20T04:18:32;3.27;;;2.20;;
9892;SDS011;4985;49.092;8.542;2022-11-20T04:20:59;2.27;;;2.07;;
9892;SDS011;4985;49.092;8.542;2022-11-20T04:23:26;3.20;;;2.03;;
9892;SDS011;4985;49.092;8.542;2022-11-20T04:25:54;3.47;;;2.63;;
9892;SDS011;4985;49.092;8.542;2022-11-20T04:28:21;3.57;;;2.33;;
9892;SDS011;4985;49.092;8.542;2022-11-20T04:30:47;2.40;;;2.20;;
9892;SDS011;4985;49.092;8.542;2022-11-20T04:33:14;4.97;;;2.47;;
9892;SDS011;4985;49.092;8.542;2022-11-20T04:35:40;3.33;;;2.27;;
9892;SDS011;4985;49.092;8.542;2022-11-20T04:38:14;2.60;;;2.20;;
9892;SDS011;4985;49.092;8.542;2022-11-20T04:40:41;2.43;;;1.90;;
9892;SDS011;4985;49.092;8.542;2022-11-20T04:43:09;3.37;;;2.03;;
9892;SDS011;4985;49.092;8.542;2022-11-20T04:45:35;2.73;;;2.07;;
9892;SDS011;4985;49.092;8.542;2022-11-20T04:48:02;3.53;;;2.10;;
9892;SDS011;4985;49.092;8.542;2022-11-20T04:50:29;3.17;;;2.27;;
9892;SDS011;4985;49.092;8.542;2022-11-20T04:52:55;2.67;;;2.13;;
9892;SDS011;4985;49.092;8.542;2022-11-20T04:55:22;2.43;;;1.87;;
9892;SDS011;4985;49.092;8.542;2022-11-20T04:57:51;2.33;;;2.07;;
9892;SDS011;4985;49.092;8.542;2022-11-20T05:00:19;2.50;;;2.10;;
9892;SDS011;4985;49.092;8.542;2022-11-20T05:02:46;2.37;;;2.10;;
9892;SDS011;4985;49.092;8.542;2022-11-20T05:05:12;2.63;;;2.10;;
9892;SDS011;4985;49.092;8.542;2022-11-20T05:07:39;2.40;;;2.20;;
9892;SDS011;4985;49.092;8.542;2022-11-20T05:10:06;2.67;;;2.20;;
9892;SDS011;4985;49.092;8.542;2022-11-20T05:12:33;2.30;;;2.10;;
9892;SDS011;4985;49.092;8.542;2022-11-20T05:15:00;2.83;;;1.97;;
9892;SDS011;4985;49.092;8.542;2022-11-20T05:17:27;2.90;;;2.07;;
9892;SDS011;4985;49.092;8.542;2022-11-20T05:19:54;3.07;;;2.30;;
9892;SDS011;4985;49.092;8.542;2022-11-20T05:22:21;2.00;;;1.70;;
9892;SDS011;4985;49.092;8.542;2022-11-20T05:24:47;2.97;;;1.97;;
9892;SDS011;4985;49.092;8.542;2022-11-20T05:27:14;2.13;;;1.57;;
9892;SDS011;4985;49.092;8.542;2022-11-20T05:29:40;2.47;;;1.57;;
9892;SDS011;4985;49.092;8.542;2022-11-20T05:32:07;3.23;;;1.80;;
9892;SDS011;4985;49.092;8.542;2022-11-20T05:34:36;2.40;;;1.80;;
9892;SDS011;4985;49.092;8.542;2022-11-20T05:37:02;1.73;;;1.43;;
9892;SDS011;4985;49.092;8.542;2022-11-20T05:39:29;2.20;;;1.50;;
9892;SDS011;4985;49.092;8.542;2022-11-20T05:41:55;1.70;;;1.40;;
9892;SDS011;4985;49.092;8.542;2022-11-20T05:44:36;2.23;;;1.87;;
9892;SDS011;4985;49.092;8.542;2022-11-20T05:47:03;3.37;;;1.80;;
9892;SDS011;4985;49.092;8.542;2022-11-20T05:49:29;2.83;;;1.53;;
9892;SDS011;4985;49.092;8.542;2022-11-20T05:51:57;2.00;;;1.80;;
9892;SDS011;4985;49.092;8.542;2022-11-20T05:54:24;2.43;;;1.40;;
9892;SDS011;4985;49.092;8.542;2022-11-20T05:56:50;3.17;;;1.60;;
9892;SDS011;4985;49.092;8.542;2022-11-20T05:59:17;3.10;;;1.50;;
9892;SDS011;4985;49.092;8.542;2022-11-20T06:01:43;1.53;;;1.43;;
9892;SDS011;4985;49.092;8.542;2022-11-20T06:04:10;1.47;;;1.37;;
9892;SDS011;4985;49.092;8.542;2022-11-20T06:06:36;2.10;;;1.30;;
9892;SDS011;4985;49.092;8.542;2022-11-20T06:09:04;1.83;;;1.60;;
9892;SDS011;4985;49.092;8.542;2022-11-20T06:11:31;1.93;;;1.50;;
9892;SDS011;4985;49.092;8.542;2022-11-20T06:13:57;3.47;;;1.57;;
9892;SDS011;4985;49.092;8.542;2022-11-20T06:16:24;2.37;;;1.30;;
9892;SDS011;4985;49.092;8.542;2022-11-20T06:18:51;1.83;;;1.30;;
9892;SDS011;4985;49.092;8.542;2022-11-20T06:21:19;1.20;;;1.10;;
9892;SDS011;4985;49.092;8.542;2022-11-20T06:23:46;1.63;;;1.10;;
9892;SDS011;4985;49.092;8.542;2022-11-20T06:26:16;2.47;;;1.33;;
9892;SDS011;4985;49.092;8.542;2022-11-20T06:28:44;2.27;;;1.47;;
9892;SDS011;4985;49.092;8.542;2022-11-20T06:31:11;1.70;;;1.40;;
9892;SDS011;4985;49.092;8.542;2022-11-20T06:33:39;1.97;;;1.40;;
9892;SDS011;4985;49.092;8.542;2022-11-20T06:36:06;2.13;;;1.30;;
9892;SDS011;4985;49.092;8.542;2022-11-20T06:38:32;1.90;;;1.33;;
9892;SDS011;4985;49.092;8.542;2022-11-20T06:40:59;1.63;;;1.47;;
9892;SDS011;4985;49.092;8.542;2022-11-20T06:43:28;2.20;;;1.50;;
9892;SDS011;4985;49.092;8.542;2022-11-20T06:45:55;1.33;;;1.23;;
9892;SDS011;4985;49.092;8.542;2022-11-20T06:48:24;1.77;;;1.23;;
9892;SDS011;4985;49.092;8.542;2022-11-20T06:50:52;1.50;;;1.40;;
9892;SDS011;4985;49.092;8.542;2022-11-20T06:53:19;2.20;;;1.30;;
9892;SDS011;4985;49.092;8.542;2022-11-20T06:55:46;1.97;;;1.20;;
9892;SDS011;4985;49.092;8.542;2022-11-20T06:58:16;3.13;;;1.20;;
9892;SDS011;4985;49.092;8.542;2022-11-20T07:00:44;1.30;;;1.20;;
9892;SDS011;4985;49.092;8.542;2022-11-20T07:03:11;1.97;;;1.20;;
9892;SDS011;4985;49.092;8.542;2022-11-20T07:05:38;1.37;;;1.23;;
9892;SDS011;4985;49.092;8.542;2022-11-20T07:08:05;2.30;;;1.40;;
9892;SDS011;4985;49.092;8.542;2022-11-20T07:10:32;1.27;;;1.13;;
9892;SDS011;4985;49.092;8.542;2022-11-20T07:12:59;1.17;;;0.97;;
9892;SDS011;4985;49.092;8.542;2022-11-20T07:15:25;1.23;;;1.10;;
9892;SDS011;4985;49.092;8.542;2022-11-20T07:17:54;1.30;;;1.20;;
9892;SDS011;4985;49.092;8.542;2022-11-20T07:20:20;1.50;;;1.17;;
9892;SDS011;4985;49.092;8.542;2022-11-20T07:22:52;1.13;;;1.03;;
9892;SDS011;4985;49.092;8.542;2022-11-20T07:25:20;1.47;;;1.20;;
9892;SDS011;4985;49.092;8.542;2022-11-20T07:27:47;3.00;;;1.20;;
9892;SDS011;4985;49.092;8.542;2022-11-20T07:30:14;2.67;;;1.27;;
9892;SDS011;4985;49.092;8.542;2022-11-20T07:32:41;1.30;;;1.20;;
9892;SDS011;4985;49.092;8.542;2022-11-20T07:35:09;1.30;;;1.10;;
9892;SDS011;4985;49.092;8.542;2022-11-20T07:37:36;1.40;;;1.17;;
9892;SDS011;4985;49.092;8.542;2022-11-20T07:40:03;2.20;;;1.10;;
9892;SDS011;4985;49.092;8.542;2022-11-20T07:42:30;1.10;;;1.00;;
9892;SDS011;4985;49.092;8.542;2022-11-20T07:44:56;1.57;;;1.10;;
9892;SDS011;4985;49.092;8.542;2022-11-20T07:47:23;1.67;;;1.20;;
9892;SDS011;4985;49.092;8.542;2022-11-20T07:49:50;1.10;;;1.00;;
9892;SDS011;4985;49.092;8.542;2022-11-20T07:52:19;1.70;;;0.83;;
9892;SDS011;4985;49.092;8.542;2022-11-20T07:54:46;1.20;;;1.10;;
9892;SDS011;4985;49.092;8.542;2022-11-20T07:57:13;1.57;;;1.20;;
9892;SDS011;4985;49.092;8.542;2022-11-20T07:59:39;1.17;;;1.03;;
9892;SDS011;4985;49.092;8.542;2022-11-20T08:02:09;1.83;;;1.23;;
9892;SDS011;4985;49.092;8.542;2022-11-20T08:04:36;3.43;;;1.40;;
9892;SDS011;4985;49.092;8.542;2022-11-20T08:07:02;1.20;;;1.10;;
9892;SDS011;4985;49.092;8.542;2022-11-20T08:09:30;0.97;;;0.97;;
9892;SDS011;4985;49.092;8.542;2022-11-20T08:11:57;2.27;;;1.43;;
9892;SDS011;4985;49.092;8.542;2022-11-20T08:14:41;1.90;;;1.23;;
9892;SDS011;4985;49.092;8.542;2022-11-20T08:17:08;1.43;;;1.20;;
9892;SDS011;4985;49.092;8.542;2022-11-20T08:19:34;1.20;;;1.10;;
9892;SDS011;4985;49.092;8.542;2022-11-20T08:22:01;1.93;;;1.10;;
9892;SDS011;4985;49.092;8.542;2022-11-20T08:24:28;0.90;;;0.90;;
9892;SDS011;4985;49.092;8.542;2022-11-20T08:26:58;2.57;;;1.40;;
9892;SDS011;4985;49.092;8.542;2022-11-20T08:29:25;1.27;;;1.13;;
9892;SDS011;4985;49.092;8.542;2022-11-20T08:31:52;2.03;;;1.37;;
9892;SDS011;4985;49.092;8.542;2022-11-20T08:34:18;1.33;;;1.20;;
9892;SDS011;4985;49.092;8.542;2022-11-20T08:36:45;1.00;;;1.00;;
9892;SDS011;4985;49.092;8.542;2022-11-20T08:39:12;1.30;;;1.20;;
9892;SDS011;4985;49.092;8.542;2022-11-20T08:41:39;1.30;;;1.20;;
9892;SDS011;4985;49.092;8.542;2022-11-20T08:44:08;2.23;;;1.40;;
9892;SDS011;4985;49.092;8.542;2022-11-20T08:46:35;1.63;;;1.20;;
9892;SDS011;4985;49.092;8.542;2022-11-20T08:49:03;1.13;;;1.10;;
9892;SDS011;4985;49.092;8.542;2022-11-20T08:51:33;1.53;;;1.10;;
9892;SDS011;4985;49.092;8.542;2022-11-20T08:53:59;1.60;;;1.50;;
9892;SDS011;4985;49.092;8.542;2022-11-20T08:56:26;1.87;;;1.40;;
9892;SDS011;4985;49.092;8.542;2022-11-20T08:58:53;3.00;;;1.70;;
9892;SDS011;4985;49.092;8.542;2022-11-20T09:01:22;1.50;;;1.40;;
9892;SDS011;4985;49.092;8.542;2022-11-20T09:03:49;1.53;;;1.23;;
9892;SDS011;4985;49.092;8.542;2022-11-20T09:06:16;2.20;;;1.30;;
9892;SDS011;4985;49.092;8.542;2022-11-20T09:08:42;1.50;;;1.40;;
9892;SDS011;4985;49.092;8.542;2022-11-20T09:11:09;1.93;;;1.70;;
9892;SDS011;4985;49.092;8.542;2022-11-20T09:13:36;2.03;;;1.40;;
9892;SDS011;4985;49.092;8.542;2022-11-20T09:16:03;1.60;;;1.50;;
9892;SDS011;4985;49.092;8.542;2022-11-20T09:18:34;1.97;;;1.73;;
9892;SDS011;4985;49.092;8.542;2022-11-20T09:21:03;1.80;;;1.70;;
9892;SDS011;4985;49.092;8.542;2022-11-20T09:23:32;2.07;;;1.87;;
9892;SDS011;4985;49.092;8.542;2022-11-20T09:26:01;3.00;;;2.00;;
9892;SDS011;4985;49.092;8.542;2022-11-20T09:28:29;2.60;;;1.70;;
9892;SDS011;4985;49.092;8.542;2022-11-20T09:30:56;2.63;;;1.80;;
9892;SDS011;4985;49.092;8.542;2022-11-20T09:33:22;4.20;;;2.13;;
9892;SDS011;4985;49.092;8.542;2022-11-20T09:35:50;2.53;;;1.87;;
9892;SDS011;4985;49.092;8.542;2022-11-20T09:38:18;2.30;;;2.03;;
9892;SDS011;4985;49.092;8.542;2022-11-20T09:40:46;3.20;;;2.10;;
9892;SDS011;4985;49.092;8.542;2022-11-20T09:43:18;6.60;;;3.60;;
9892;SDS011;4985;49.092;8.542;2022-11-20T09:45:54;5.77;;;3.90;;
9892;SDS011;4985;49.092;8.542;2022-11-20T09:48:32;3.40;;;2.50;;
9892;SDS011;4985;49.092;8.542;2022-11-20T09:51:08;2.40;;;1.70;;
9892;SDS011;4985;49.092;8.542;2022-11-20T09:53:46;4.20;;;3.03;;
9892;SDS011;4985;49.092;8.542;2022-11-20T09:56:23;4.13;;;2.40;;
9892;SDS011;4985;49.092;8.542;2022-11-20T09:58:51;2.27;;;1.73;;
9892;SDS011;4985;49.092;8.542;2022-11-20T10:01:21;4.53;;;2.93;;
9892;SDS011;4985;49.092;8.542;2022-11-20T10:03:54;2.37;;;1.60;;
9892;SDS011;4985;49.092;8.542;2022-11-20T10:06:28;2.63;;;1.80;;
9892;SDS011;4985;49.092;8.542;2022-11-20T10:09:00;2.23;;;1.40;;
9892;SDS011;4985;49.092;8.542;2022-11-20T10:11:36;1.60;;;1.50;;
9892;SDS011;4985;49.092;8.542;2022-11-20T10:14:15;2.10;;;1.67;;
9892;SDS011;4985;49.092;8.542;2022-11-20T10:16:51;2.33;;;1.90;;
9892;SDS011;4985;49.092;8.542;2022-11-20T10:19:31;1.60;;;1.50;;
9892;SDS011;4985;49.092;8.542;2022-11-20T10:22:10;1.93;;;1.70;;
9892;SDS011;4985;49.092;8.542;2022-11-20T10:24:51;3.10;;;1.77;;
9892;SDS011;4985;49.092;8.542;2022-11-20T10:27:27;3.83;;;1.90;;
9892;SDS011;4985;49.092;8.542;2022-11-20T10:30:07;2.20;;;1.70;;
9892;SDS011;4985;49.092;8.542;2022-11-20T10:32:36;3.10;;;1.70;;
9892;SDS011;4985;49.092;8.542;2022-11-20T10:35:05;4.33;;;2.53;;
9892;SDS011;4985;49.092;8.542;2022-11-20T10:37:44;4.70;;;2.40;;
9892;SDS011;4985;49.092;8.542;2022-11-20T10:40:18;3.07;;;2.37;;
9892;SDS011;4985;49.092;8.542;2022-11-20T10:42:50;4.80;;;2.70;;
9892;SDS011;4985;49.092;8.542;2022-11-20T10:45:24;2.17;;;1.97;;
9892;SDS011;4985;49.092;8.542;2022-11-20T10:48:07;4.20;;;2.47;;
9892;SDS011;4985;49.092;8.542;2022-11-20T10:50:40;3.93;;;2.00;;
9892;SDS011;4985;49.092;8.542;2022-11-20T10:53:28;2.57;;;1.90;;
9892;SDS011;4985;49.092;8.542;2022-11-20T10:56:17;5.97;;;2.60;;
9892;SDS011;4985;49.092;8.542;2022-11-20T10:58:48;2.53;;;1.80;;
9892;SDS011;4985;49.092;8.542;2022-11-20T11:01:26;2.90;;;1.83;;
9892;SDS011;4985;49.092;8.542;2022-11-20T11:03:53;3.20;;;2.27;;
9892;SDS011;4985;49.092;8.542;2022-11-20T11:06:22;2.10;;;1.70;;
9892;SDS011;4985;49.092;8.542;2022-11-20T11:08:56;4.27;;;2.40;;
9892;SDS011;4985;49.092;8.542;2022-11-20T11:11:28;2.33;;;1.73;;
9892;SDS011;4985;49.092;8.542;2022-11-20T11:14:04;2.60;;;1.90;;
9892;SDS011;4985;49.092;8.542;2022-11-20T11:16:31;3.83;;;1.83;;
9892;SDS011;4985;49.092;8.542;2022-11-20T11:19:05;3.10;;;2.00;;
9892;SDS011;4985;49.092;8.542;2022-11-20T11:21:38;3.63;;;1.83;;
9892;SDS011;4985;49.092;8.542;2022-11-20T11:24:15;4.40;;;2.07;;
9892;SDS011;4985;49.092;8.542;2022-11-20T11:26:51;3.60;;;2.00;;
9892;SDS011;4985;49.092;8.542;2022-11-20T11:29:21;2.10;;;1.90;;
9892;SDS011;4985;49.092;8.542;2022-11-20T11:31:47;3.53;;;1.70;;
9892;SDS011;4985;49.092;8.542;2022-11-20T11:34:17;3.30;;;1.73;;
9892;SDS011;4985;49.092;8.542;2022-11-20T11:36:48;2.63;;;1.80;;
9892;SDS011;4985;49.092;8.542;2022-11-20T11:39:21;2.40;;;1.67;;
9892;SDS011;4985;49.092;8.542;2022-11-20T11:41:50;2.10;;;1.23;;
9892;SDS011;4985;49.092;8.542;2022-11-20T11:44:18;3.80;;;1.70;;
9892;SDS011;4985;49.092;8.542;2022-11-20T11:47:04;2.27;;;1.80;;
9892;SDS011;4985;49.092;8.542;2022-11-20T11:49:34;4.53;;;1.90;;
9892;SDS011;4985;49.092;8.542;2022-11-20T11:52:04;5.13;;;1.87;;
9892;SDS011;4985;49.092;8.542;2022-11-20T11:54:36;5.23;;;1.80;;
9892;SDS011;4985;49.092;8.542;2022-11-20T11:57:10;2.87;;;1.87;;
9892;SDS011;4985;49.092;8.542;2022-11-20T11:59:44;3.23;;;1.60;;
9892;SDS011;4985;49.092;8.542;2022-11-20T12:02:23;5.70;;;1.70;;
9892;SDS011;4985;49.092;8.542;2022-11-20T12:04:57;2.83;;;1.80;;
9892;SDS011;4985;49.092;8.542;2022-11-20T12:07:31;2.73;;;1.70;;
9892;SDS011;4985;49.092;8.542;2022-11-20T12:10:08;4.07;;;1.70;;
9892;SDS011;4985;49.092;8.542;2022-11-20T12:12:42;4.83;;;1.93;;
9892;SDS011;4985;49.092;8.542;2022-11-20T12:15:11;2.27;;;1.50;;
9892;SDS011;4985;49.092;8.542;2022-11-20T12:17:42;2.90;;;1.70;;
9892;SDS011;4985;49.092;8.542;2022-11-20T12:20:11;2.27;;;1.70;;
9892;SDS011;4985;49.092;8.542;2022-11-20T12:22:41;3.60;;;1.60;;
9892;SDS011;4985;49.092;8.542;2022-11-20T12:25:18;2.40;;;1.50;;
9892;SDS011;4985;49.092;8.542;2022-11-20T12:27:55;2.07;;;1.40;;
9892;SDS011;4985;49.092;8.542;2022-11-20T12:30:40;3.00;;;1.60;;
9892;SDS011;4985;49.092;8.542;2022-11-20T12:33:28;1.83;;;1.40;;
9892;SDS011;4985;49.092;8.542;2022-11-20T12:36:18;2.70;;;1.63;;
9892;SDS011;4985;49.092;8.542;2022-11-20T12:38:57;4.97;;;1.47;;
9892;SDS011;4985;49.092;8.542;2022-11-20T12:41:41;2.63;;;1.50;;
9892;SDS011;4985;49.092;8.542;2022-11-20T12:47:38;3.23;;;1.53;;
9892;SDS011;4985;49.092;8.542;2022-11-20T12:50:23;2.37;;;1.60;;
9892;SDS011;4985;49.092;8.542;2022-11-20T12:52:58;2.60;;;1.60;;
9892;SDS011;4985;49.092;8.542;2022-11-20T12:55:35;2.57;;;1.43;;
9892;SDS011;4985;49.092;8.542;2022-11-20T12:58:10;2.37;;;1.40;;
9892;SDS011;4985;49.092;8.542;2022-11-20T13:00:47;3.97;;;1.60;;
9892;SDS011;4985;49.092;8.542;2022-11-20T13:03:41;3.30;;;1.30;;
9892;SDS011;4985;49.092;8.542;2022-11-20T13:06:14;2.80;;;1.60;;
9892;SDS011;4985;49.092;8.542;2022-11-20T13:08:43;4.47;;;1.67;;
9892;SDS011;4985;49.092;8.542;2022-11-20T13:11:15;1.67;;;1.13;;
9892;SDS011;4985;49.092;8.542;2022-11-20T13:13:59;2.37;;;1.40;;
9892;SDS011;4985;49.092;8.542;2022-11-20T13:16:36;2.40;;;1.27;;
9892;SDS011;4985;49.092;8.542;2022-11-20T13:19:09;2.70;;;1.47;;
9892;SDS011;4985;49.092;8.542;2022-11-20T13:21:39;2.90;;;1.23;;
9892;SDS011;4985;49.092;8.542;2022-11-20T13:24:07;1.70;;;1.40;;
9892;SDS011;4985;49.092;8.542;2022-11-20T13:26:48;4.67;;;1.07;;
9892;SDS011;4985;49.092;8.542;2022-11-20T13:29:26;1.70;;;1.00;;
9892;SDS011;4985;49.092;8.542;2022-11-20T13:32:01;1.83;;;1.23;;
9892;SDS011;4985;49.092;8.542;2022-11-20T13:34:30;4.57;;;1.43;;
9892;SDS011;4985;49.092;8.542;2022-11-20T13:36:57;1.67;;;1.50;;
9892;SDS011;4985;49.092;8.542;2022-11-20T13:39:25;1.77;;;1.10;;
9892;SDS011;4985;49.092;8.542;2022-11-20T13:41:54;2.90;;;1.40;;
9892;SDS011;4985;49.092;8.542;2022-11-20T13:44:23;2.10;;;1.10;;
9892;SDS011;4985;49.092;8.542;2022-11-20T13:46:54;1.73;;;1.00;;
9892;SDS011;4985;49.092;8.542;2022-11-20T13:49:23;3.00;;;1.30;;
9892;SDS011;4985;49.092;8.542;2022-11-20T13:51:55;1.43;;;0.90;;
9892;SDS011;4985;49.092;8.542;2022-11-20T13:57:40;1.60;;;1.17;;
9892;SDS011;4985;49.092;8.542;2022-11-20T14:00:15;1.60;;;1.50;;
9892;SDS011;4985;49.092;8.542;2022-11-20T14:02:44;2.70;;;1.20;;
9892;SDS011;4985;49.092;8.542;2022-11-20T14:05:19;3.87;;;1.70;;
9892;SDS011;4985;49.092;8.542;2022-11-20T14:07:50;1.80;;;1.10;;
9892;SDS011;4985;49.092;8.542;2022-11-20T14:10:21;2.00;;;1.00;;
9892;SDS011;4985;49.092;8.542;2022-11-20T14:12:50;2.77;;;1.60;;
9892;SDS011;4985;49.092;8.542;2022-11-20T14:15:27;3.73;;;1.70;;
9892;SDS011;4985;49.092;8.542;2022-11-20T14:17:56;2.03;;;1.07;;
9892;SDS011;4985;49.092;8.542;2022-11-20T14:20:23;2.93;;;1.43;;
9892;SDS011;4985;49.092;8.542;2022-11-20T14:22:53;3.57;;;1.63;;
9892;SDS011;4985;49.092;8.542;2022-11-20T14:25:23;1.37;;;1.00;;
9892;SDS011;4985;49.092;8.542;2022-11-20T14:27:52;2.00;;;1.10;;
9892;SDS011;4985;49.092;8.542;2022-11-20T14:30:21;2.43;;;1.20;;
9892;SDS011;4985;49.092;8.542;2022-11-20T14:32:49;3.07;;;1.53;;
9892;SDS011;4985;49.092;8.542;2022-11-20T14:35:21;1.87;;;1.00;;
9892;SDS011;4985;49.092;8.542;2022-11-20T14:37:51;1.83;;;1.20;;
9892;SDS011;4985;49.092;8.542;2022-11-20T14:40:21;5.30;;;1.10;;
9892;SDS011;4985;49.092;8.542;2022-11-20T14:42:53;3.07;;;1.20;;
9892;SDS011;4985;49.092;8.542;2022-11-20T14:45:20;2.20;;;1.27;;
9892;SDS011;4985;49.092;8.542;2022-11-20T14:47:48;2.33;;;1.10;;
9892;SDS011;4985;49.092;8.542;2022-11-20T14:50:18;1.30;;;1.00;;
9892;SDS011;4985;49.092;8.542;2022-11-20T14:52:53;3.17;;;1.23;;
9892;SDS011;4985;49.092;8.542;2022-11-20T14:55:27;1.73;;;1.20;;
9892;SDS011;4985;49.092;8.542;2022-11-20T14:57:56;1.63;;;1.13;;
9892;SDS011;4985;49.092;8.542;2022-11-20T15:00:24;3.87;;;1.20;;
9892;SDS011;4985;49.092;8.542;2022-11-20T15:02:51;2.30;;;1.13;;
9892;SDS011;4985;49.092;8.542;2022-11-20T15:05:19;0.93;;;0.90;;
9892;SDS011;4985;49.092;8.542;2022-11-20T15:07:49;2.50;;;1.27;;
9892;SDS011;4985;49.092;8.542;2022-11-20T15:10:21;2.27;;;1.13;;
9892;SDS011;4985;49.092;8.542;2022-11-20T15:12:49;1.20;;;1.00;;
9892;SDS011;4985;49.092;8.542;2022-11-20T15:15:20;1.60;;;1.20;;
9892;SDS011;4985;49.092;8.542;2022-11-20T15:17:49;1.93;;;1.33;;
9892;SDS011;4985;49.092;8.542;2022-11-20T15:20:16;1.67;;;0.97;;
9892;SDS011;4985;49.092;8.542;2022-11-20T15:22:45;1.63;;;0.93;;
9892;SDS011;4985;49.092;8.542;2022-11-20T15:25:12;1.47;;;1.00;;
9892;SDS011;4985;49.092;8.542;2022-11-20T15:27:39;2.97;;;1.03;;
9892;SDS011;4985;49.092;8.542;2022-11-20T15:30:11;1.17;;;0.90;;
9892;SDS011;4985;49.092;8.542;2022-11-20T15:32:39;1.97;;;1.00;;
9892;SDS011;4985;49.092;8.542;2022-11-20T15:35:08;1.43;;;1.20;;
9892;SDS011;4985;49.092;8.542;2022-11-20T15:37:35;1.87;;;1.03;;